Terminal Aerodrome Forecast
Issued by NWS

Home | Current Version | Previous Version | Graphics & Text | Print | Product List | Glossary On
Versions: 1 2 3 4 5 6 7 8 9 10 11 12 13 14 15 16 17 18 19 20 21
000
FTUS43 KABR 241720
TAFPIR
TAF
KPIR 241720Z 2418/2518 15012G20KT P6SM SCT040
     FM242300 14018G27KT P6SM FEW250
     FM250400 13016KT P6SM FEW250 WS020/16045KT
     FM250900 15014KT P6SM SCT200
     FM251100 20008KT P6SM SCT200
     FM251400 29012KT P6SM BKN150=

USA.gov is the U.S. government's official web portal to all federal, state and local government web resources and services.